Terminal Aerodrome Forecast
Issued by NWS

Home | Current Version | Previous Version | Text Only | Print | Product List | Glossary On
Versions: 1 2 3 4 5 6 7 8 9 10 11 12 13 14 15 16 17
000
FTUS45 KGJT 290538
TAFCNY
TAF
KCNY 290538Z 2906/3006 12004KT P6SM -RA SCT045 OVC050
     FM290700 12004KT P6SM VCSH BKN110
     FM290900 18004KT P6SM VCSH BKN090
     FM291700 29005KT P6SM VCSH BKN080
     FM292200 29008KT P6SM SCT100=

USA.gov is the U.S. government's official web portal to all federal, state and local government web resources and services.